ADDS METAR Data INFO
IDs: Format: Raw Decoded Include TAF

Data at: 0346 UTC 18 Oct 2017

KDEC 180254Z 00000KT 10SM CLR 11/04 A3022 RMK AO2 SLP234 T01060039 52005
KDEC 180154Z 18004KT 10SM CLR 10/04 A3021 RMK AO2 SLP232 T01000039
KDEC 180054Z 19006KT 10SM CLR 12/04 A3021 RMK AO2 SLP232 T01220039
KDEC 172354Z 19006KT 10SM CLR 14/04 A3021 RMK AO2 SLP229 T01390039 10200 20139 53001
KDEC 172254Z 19008KT 10SM CLR 17/04 A3019 RMK AO2 SLP225 T01670044
KDEC 172154Z 20010KT 10SM CLR 19/03 A3019 RMK AO2 SLP222 T01890033
KDEC 172054Z 21012KT 10SM CLR 19/04 A3020 RMK AO2 SLP227 T01940039 56025
KDEC 171954Z 22014KT 10SM CLR 19/04 A3022 RMK AO2 SLP233 T01890039
KDEC 171854Z 23017KT 10SM CLR 19/04 A3025 RMK AO2 SLP242 T01890039
KDEC 171754Z 20016KT 10SM CLR 19/04 A3028 RMK AO2 SLP252 60000 T01890044 10189 20067 58016
KDEC 171654Z 23014KT 10SM CLR 18/04 A3030 RMK AO2 SLP262 T01780044
KDEC 171554Z 23013KT 10SM CLR 16/04 A3031 RMK AO2 RAE1459 SLP264 P0000 T01610044
KDEC 171454Z 21015KT 10SM -RA CLR 14/05 A3032 RMK AO2 RAB52 SLP269 P0000 60000 T01390050 50002
KDEC 171354Z 21011KT 10SM CLR 11/04 A3033 RMK AO2 SLP271 T01110044
KDEC 171254Z 22009KT 10SM CLR 08/04 A3032 RMK AO2 SLP269 T00830039
KDEC 171154Z 21007KT 10SM CLR 07/03 A3032 RMK AO2 SLP267 T00720033 10083 20061 51011
KDEC 171054Z 21007KT 10SM CLR 07/03 A3031 RMK AO2 SLP264 T00670033
KDEC 170954Z AUTO 21006KT 10SM CLR 07/03 A3030 RMK AO2 SLP263 T00670028
KDEC 170854Z AUTO 21006KT 10SM CLR 07/03 A3028 RMK AO2 SLP254 T00670033 53003
KDEC 170754Z AUTO 22008KT 10SM CLR 08/03 A3027 RMK AO2 SLP251 T00780033
KDEC 170654Z AUTO 21008KT 10SM CLR 08/04 A3027 RMK AO2 SLP252 T00830039
KDEC 170554Z AUTO 22007KT 10SM CLR 08/03 A3027 RMK AO2 SLP252 T00780033 10139 20072 401830039 58006
KDEC 170454Z AUTO 22006KT 10SM CLR 08/04 A3028 RMK AO2 SLP254 T00780039
KDEC 170354Z AUTO 22006KT 10SM CLR 08/03 A3029 RMK AO2 SLP257 T00830033
KDEC 170254Z 22005KT 10SM CLR 09/04 A3029 RMK AO2 SLP258 T00940039 53006
KDEC 170154Z 23003KT 10SM CLR 11/04 A3028 RMK AO2 SLP257 T01060039
KDEC 170054Z 21004KT 10SM CLR 11/04 A3027 RMK AO2 SLP254 T01110039
KDEC 162354Z 23004KT 10SM CLR 14/03 A3027 RMK AO2 SLP253 T01390028 10183 20139 55005
KDEC 162254Z 25004KT 10SM CLR 16/02 A3027 RMK AO2 SLP250 T01610022
KDEC 162154Z 26006KT 8SM CLR 18/02 A3027 RMK AO2 SLP252 T01780017
KDEC 162054Z 29006KT 10SM CLR 18/02 A3029 RMK AO2 SLP257 T01830022 56021
KDEC 161954Z 28007KT 10SM CLR 18/02 A3030 RMK AO2 SLP263 T01780017
KDEC 161854Z 26006KT 10SM CLR 17/02 A3032 RMK AO2 SLP268 T01720022
KDEC 161754Z 23007KT 190V260 10SM CLR 16/03 A3035 RMK AO2 SLP278 T01610033 10161 20039 58013
KDEC 161654Z 28006KT 10SM CLR 15/04 A3038 RMK AO2 SLP288 T01500039
KDEC 161554Z 25007KT 10SM CLR 13/04 A3038 RMK AO2 SLP289 T01330044